Terminal Aerodrome Forecast
Issued by NWS

Home | Current Version | Previous Version | Text Only | Print | Product List | Glossary Off
Versions: 1 2 3 4 5 6 7 8 9 10 11 12 13 14 15 16 17 18 19 20

000
FTUS43 KFGF 301700
TAFBJI
TAF
KBJI 301738Z 3018/0118 12012G18KT P6SM SCT015
     FM302000 13015G22KT P6SM SCT080
     FM010400 14016KT P6SM VCSH BKN050=

USA.gov is the U.S. government's official web portal to all federal, state and local government web resources and services.